Aviation Digital Data Service (ADDS)

Output produced by METARs form (1904 UTC 26 September 2021)
found at http://www.aviationweather.gov/metar/data/
 
METAR text: UTDT 261830Z 36003MPS 9999 NSC 19/11 Q1009 R35/////// RMK QFE717/0957
Conditions at: UTDT (QURGHONTEPPA , TJ) observed 1830 UTC 26 September 2021
Temperature: 19.0°C (66°F)
Dewpoint: 11.0°C (52°F) [RH = 60%]
Pressure (altimeter): 29.79 inches Hg (1009.0 mb)
Winds: from the N (360 degrees) at 7 MPH (6 knots; 3.1 m/s)
Visibility: 6 or more miles (10+ km)
Ceiling: at least 12,000 feet AGL
Clouds: sky clear below 12,000 feet AGL
Weather: no significant weather observed at this time

METAR text: UTDT 261800Z 09003MPS 9999 NSC 23/02 Q1008 R35/////// RMK QFE717/0956
Conditions at: UTDT (QURGHONTEPPA , TJ) observed 1800 UTC 26 September 2021
Temperature: 23.0°C (73°F)
Dewpoint: 2.0°C (36°F) [RH = 25%]
Pressure (altimeter): 29.76 inches Hg (1008.0 mb)
Winds: from the E (90 degrees) at 7 MPH (6 knots; 3.1 m/s)
Visibility: 6 or more miles (10+ km)
Ceiling: at least 12,000 feet AGL
Clouds: sky clear below 12,000 feet AGL
Weather: no significant weather observed at this time

METAR text: UTDT 261730Z 09003MPS 9999 NSC 23/03 Q1008 R35/////// RMK QFE717/0956
Conditions at: UTDT (QURGHONTEPPA , TJ) observed 1730 UTC 26 September 2021
Temperature: 23.0°C (73°F)
Dewpoint: 3.0°C (37°F) [RH = 27%]
Pressure (altimeter): 29.76 inches Hg (1008.0 mb)
Winds: from the E (90 degrees) at 7 MPH (6 knots; 3.1 m/s)
Visibility: 6 or more miles (10+ km)
Ceiling: at least 12,000 feet AGL
Clouds: sky clear below 12,000 feet AGL
Weather: no significant weather observed at this time

METAR text: UTDT 261700Z 09002MPS 9999 NSC 21/06 Q1008 R35/////// RMK QFE717/0956
Conditions at: UTDT (QURGHONTEPPA , TJ) observed 1700 UTC 26 September 2021
Temperature: 21.0°C (70°F)
Dewpoint: 6.0°C (43°F) [RH = 38%]
Pressure (altimeter): 29.76 inches Hg (1008.0 mb)
Winds: from the E (90 degrees) at 5 MPH (4 knots; 2.1 m/s)
Visibility: 6 or more miles (10+ km)
Ceiling: at least 12,000 feet AGL
Clouds: sky clear below 12,000 feet AGL
Weather: no significant weather observed at this time

METAR text: UTDT 261630Z 05002MPS 020V090 9999 NSC 21/09 Q1008 R35/////// RMK QFE716/0955
Conditions at: UTDT (QURGHONTEPPA , TJ) observed 1630 UTC 26 September 2021
Temperature: 21.0°C (70°F)
Dewpoint: 9.0°C (48°F) [RH = 46%]
Pressure (altimeter): 29.76 inches Hg (1008.0 mb)
Winds: from the NE (50 degrees) at 5 MPH (4 knots; 2.1 m/s)
Visibility: 6 or more miles (10+ km)
Ceiling: at least 12,000 feet AGL
Clouds: sky clear below 12,000 feet AGL
Weather: no significant weather observed at this time

METAR text: UTDT 261600Z 07002MPS 350V110 8000 NSC 23/05 Q1007 R35/////// RMK QFE716/0955
Conditions at: UTDT (QURGHONTEPPA , TJ) observed 1600 UTC 26 September 2021
Temperature: 23.0°C (73°F)
Dewpoint: 5.0°C (41°F) [RH = 31%]
Pressure (altimeter): 29.73 inches Hg (1007.0 mb)
Winds: from the ENE (70 degrees) at 5 MPH (4 knots; 2.1 m/s)
Visibility: 5 miles ( 8 km)
Ceiling: at least 12,000 feet AGL
Clouds: sky clear below 12,000 feet AGL
Weather: no significant weather observed at this time

METAR text: UTDT 261530Z 09003MPS 8000 NSC 22/07 Q1007 R35/////// RMK QFE716/0955
Conditions at: UTDT (QURGHONTEPPA , TJ) observed 1530 UTC 26 September 2021
Temperature: 22.0°C (72°F)
Dewpoint: 7.0°C (45°F) [RH = 38%]
Pressure (altimeter): 29.73 inches Hg (1007.0 mb)
Winds: from the E (90 degrees) at 7 MPH (6 knots; 3.1 m/s)
Visibility: 5 miles ( 8 km)
Ceiling: at least 12,000 feet AGL
Clouds: sky clear below 12,000 feet AGL
Weather: no significant weather observed at this time

METAR text: UTDT 261500Z 11002MPS 7000 NSC 21/09 Q1006 R35/////// RMK QFE716/0954
Conditions at: UTDT (QURGHONTEPPA , TJ) observed 1500 UTC 26 September 2021
Temperature: 21.0°C (70°F)
Dewpoint: 9.0°C (48°F) [RH = 46%]
Pressure (altimeter): 29.70 inches Hg (1006.0 mb)
Winds: from the ESE (110 degrees) at 5 MPH (4 knots; 2.1 m/s)
Visibility: 4 miles ( 7 km)
Ceiling: at least 12,000 feet AGL
Clouds: sky clear below 12,000 feet AGL
Weather: no significant weather observed at this time

METAR text: UTDT 261430Z 12001MPS 9000 NSC 22/10 Q1006 R35/////// RMK QFE716/0954
Conditions at: UTDT (QURGHONTEPPA , TJ) observed 1430 UTC 26 September 2021
Temperature: 22.0°C (72°F)
Dewpoint: 10.0°C (50°F) [RH = 46%]
Pressure (altimeter): 29.70 inches Hg (1006.0 mb)
Winds: from the ESE (120 degrees) at 2 MPH (2 knots; 1.0 m/s)
Visibility: 6 miles ( 9 km)
Ceiling: at least 12,000 feet AGL
Clouds: sky clear below 12,000 feet AGL
Weather: no significant weather observed at this time

METAR text: UTDT 261400Z 08001MPS 8000 NSC 22/11 Q1006 R35/////// RMK QFE715/0954
Conditions at: UTDT (QURGHONTEPPA , TJ) observed 1400 UTC 26 September 2021
Temperature: 22.0°C (72°F)
Dewpoint: 11.0°C (52°F) [RH = 50%]
Pressure (altimeter): 29.70 inches Hg (1006.0 mb)
Winds: from the E (80 degrees) at 2 MPH (2 knots; 1.0 m/s)
Visibility: 5 miles ( 8 km)
Ceiling: at least 12,000 feet AGL
Clouds: sky clear below 12,000 feet AGL
Weather: no significant weather observed at this time

METAR text: UTDT 261330Z 13002MPS 9999 NSC 24/11 Q1006 R35/////// RMK QFE715/0954
Conditions at: UTDT (QURGHONTEPPA , TJ) observed 1330 UTC 26 September 2021
Temperature: 24.0°C (75°F)
Dewpoint: 11.0°C (52°F) [RH = 44%]
Pressure (altimeter): 29.70 inches Hg (1006.0 mb)
Winds: from the SE (130 degrees) at 5 MPH (4 knots; 2.1 m/s)
Visibility: 6 or more miles (10+ km)
Ceiling: at least 12,000 feet AGL
Clouds: sky clear below 12,000 feet AGL
Weather: no significant weather observed at this time

METAR text: UTDT 261300Z 17001MPS 9999 NSC 28/10 Q1006 R35/////// RMK QFE715/0954
Conditions at: UTDT (QURGHONTEPPA , TJ) observed 1300 UTC 26 September 2021
Temperature: 28.0°C (82°F)
Dewpoint: 10.0°C (50°F) [RH = 32%]
Pressure (altimeter): 29.70 inches Hg (1006.0 mb)
Winds: from the S (170 degrees) at 2 MPH (2 knots; 1.0 m/s)
Visibility: 6 or more miles (10+ km)
Ceiling: at least 12,000 feet AGL
Clouds: sky clear below 12,000 feet AGL
Weather: no significant weather observed at this time

METAR text: UTDT 261230Z 22002MPS 9999 NSC 32/08 Q1006 R35/////// RMK QFE715/0954
Conditions at: UTDT (QURGHONTEPPA , TJ) observed 1230 UTC 26 September 2021
Temperature: 32.0°C (90°F)
Dewpoint: 8.0°C (46°F) [RH = 23%]
Pressure (altimeter): 29.70 inches Hg (1006.0 mb)
Winds: from the SW (220 degrees) at 5 MPH (4 knots; 2.1 m/s)
Visibility: 6 or more miles (10+ km)
Ceiling: at least 12,000 feet AGL
Clouds: sky clear below 12,000 feet AGL
Weather: no significant weather observed at this time

METAR text: UTDT 261200Z 22002MPS 190V250 9999 FEW130 34/08 Q1006 R35/CLRD70 RMK QFE715/0954
Conditions at: UTDT (QURGHONTEPPA , TJ) observed 1200 UTC 26 September 2021
Temperature: 34.0°C (93°F)
Dewpoint: 8.0°C (46°F) [RH = 20%]
Pressure (altimeter): 29.70 inches Hg (1006.0 mb)
Winds: from the SW (220 degrees) at 5 MPH (4 knots; 2.1 m/s)
Visibility: 6 or more miles (10+ km)
Ceiling: at least 12,000 feet AGL
Clouds: few clouds at 13000 feet AGL
Weather: no significant weather observed at this time

METAR text: UTDT 261130Z 23002MPS 180V270 9999 FEW130 35/07 Q1006 R35/CLRD70 RMK QFE715/0954
Conditions at: UTDT (QURGHONTEPPA , TJ) observed 1130 UTC 26 September 2021
Temperature: 35.0°C (95°F)
Dewpoint: 7.0°C (45°F) [RH = 18%]
Pressure (altimeter): 29.70 inches Hg (1006.0 mb)
Winds: from the SW (230 degrees) at 5 MPH (4 knots; 2.1 m/s)
Visibility: 6 or more miles (10+ km)
Ceiling: at least 12,000 feet AGL
Clouds: few clouds at 13000 feet AGL
Weather: no significant weather observed at this time

METAR text: UTDT 261100Z 24002MPS 200V270 9999 FEW130 35/03 Q1006 R35/CLRD70 RMK QFE715/0954
Conditions at: UTDT (QURGHONTEPPA , TJ) observed 1100 UTC 26 September 2021
Temperature: 35.0°C (95°F)
Dewpoint: 3.0°C (37°F) [RH = 13%]
Pressure (altimeter): 29.70 inches Hg (1006.0 mb)
Winds: from the WSW (240 degrees) at 5 MPH (4 knots; 2.1 m/s)
Visibility: 6 or more miles (10+ km)
Ceiling: at least 12,000 feet AGL
Clouds: few clouds at 13000 feet AGL
Weather: no significant weather observed at this time

METAR text: UTDT 261030Z 27002MPS 230V320 9999 FEW130 35/05 Q1006 R35/CLRD70 RMK QFE715/0954
Conditions at: UTDT (QURGHONTEPPA , TJ) observed 1030 UTC 26 September 2021
Temperature: 35.0°C (95°F)
Dewpoint: 5.0°C (41°F) [RH = 16%]
Pressure (altimeter): 29.70 inches Hg (1006.0 mb)
Winds: from the W (270 degrees) at 5 MPH (4 knots; 2.1 m/s)
Visibility: 6 or more miles (10+ km)
Ceiling: at least 12,000 feet AGL
Clouds: few clouds at 13000 feet AGL
Weather: no significant weather observed at this time

METAR text: UTDT 261000Z 29002MPS 240V010 9999 FEW130 35/04 Q1006 R35/CLRD70 RMK QFE715/0954
Conditions at: UTDT (QURGHONTEPPA , TJ) observed 1000 UTC 26 September 2021
Temperature: 35.0°C (95°F)
Dewpoint: 4.0°C (39°F) [RH = 14%]
Pressure (altimeter): 29.70 inches Hg (1006.0 mb)
Winds: from the WNW (290 degrees) at 5 MPH (4 knots; 2.1 m/s)
Visibility: 6 or more miles (10+ km)
Ceiling: at least 12,000 feet AGL
Clouds: few clouds at 13000 feet AGL
Weather: no significant weather observed at this time

METAR text: UTDT 260930Z 28002MPS 200V330 9999 FEW130 35/03 Q1006 R35/CLRD70 RMK QFE716/0954
Conditions at: UTDT (QURGHONTEPPA , TJ) observed 0930 UTC 26 September 2021
Temperature: 35.0°C (95°F)
Dewpoint: 3.0°C (37°F) [RH = 13%]
Pressure (altimeter): 29.70 inches Hg (1006.0 mb)
Winds: from the W (280 degrees) at 5 MPH (4 knots; 2.1 m/s)
Visibility: 6 or more miles (10+ km)
Ceiling: at least 12,000 feet AGL
Clouds: few clouds at 13000 feet AGL
Weather: no significant weather observed at this time

METAR text: UTDT 260900Z 27002MPS 210V320 9999 NSC 35/04 Q1007 R35/CLRD70 RMK QFE716/0955
Conditions at: UTDT (QURGHONTEPPA , TJ) observed 0900 UTC 26 September 2021
Temperature: 35.0°C (95°F)
Dewpoint: 4.0°C (39°F) [RH = 14%]
Pressure (altimeter): 29.73 inches Hg (1007.0 mb)
Winds: from the W (270 degrees) at 5 MPH (4 knots; 2.1 m/s)
Visibility: 6 or more miles (10+ km)
Ceiling: at least 12,000 feet AGL
Clouds: sky clear below 12,000 feet AGL
Weather: no significant weather observed at this time

METAR text: UTDT 260830Z 27002MPS 210V330 9999 NSC 34/06 Q1007 R35/CLRD70 RMK QFE716/0955
Conditions at: UTDT (QURGHONTEPPA , TJ) observed 0830 UTC 26 September 2021
Temperature: 34.0°C (93°F)
Dewpoint: 6.0°C (43°F) [RH = 18%]
Pressure (altimeter): 29.73 inches Hg (1007.0 mb)
Winds: from the W (270 degrees) at 5 MPH (4 knots; 2.1 m/s)
Visibility: 6 or more miles (10+ km)
Ceiling: at least 12,000 feet AGL
Clouds: sky clear below 12,000 feet AGL
Weather: no significant weather observed at this time

METAR text: UTDT 260800Z 25002MPS 9999 NSC 33/08 Q1008 R35/CLRD70 RMK QFE716/0955
Conditions at: UTDT (QURGHONTEPPA , TJ) observed 0800 UTC 26 September 2021
Temperature: 33.0°C (91°F)
Dewpoint: 8.0°C (46°F) [RH = 21%]
Pressure (altimeter): 29.76 inches Hg (1008.0 mb)
Winds: from the WSW (250 degrees) at 5 MPH (4 knots; 2.1 m/s)
Visibility: 6 or more miles (10+ km)
Ceiling: at least 12,000 feet AGL
Clouds: sky clear below 12,000 feet AGL
Weather: no significant weather observed at this time

METAR text: UTDT 260730Z VRB01MPS 9999 NSC 32/07 Q1008 R35/CLRD70 RMK QFE717/0956
Conditions at: UTDT (QURGHONTEPPA , TJ) observed 0730 UTC 26 September 2021
Temperature: 32.0°C (90°F)
Dewpoint: 7.0°C (45°F) [RH = 21%]
Pressure (altimeter): 29.76 inches Hg (1008.0 mb)
Winds: variable direction winds at 2 MPH (2 knots; 1.0 m/s)
Visibility: 6 or more miles (10+ km)
Ceiling: at least 12,000 feet AGL
Clouds: sky clear below 12,000 feet AGL
Weather: no significant weather observed at this time

METAR text: UTDT 260700Z 28002MPS 230V340 9999 NSC 32/07 Q1008 R35/CLRD70 RMK QFE717/0956
Conditions at: UTDT (QURGHONTEPPA , TJ) observed 0700 UTC 26 September 2021
Temperature: 32.0°C (90°F)
Dewpoint: 7.0°C (45°F) [RH = 21%]
Pressure (altimeter): 29.76 inches Hg (1008.0 mb)
Winds: from the W (280 degrees) at 5 MPH (4 knots; 2.1 m/s)
Visibility: 6 or more miles (10+ km)
Ceiling: at least 12,000 feet AGL
Clouds: sky clear below 12,000 feet AGL
Weather: no significant weather observed at this time

METAR text: UTDT 260630Z VRB01MPS 9999 NSC 31/08 Q1009 R35/CLRD70 RMK QFE717/0957
Conditions at: UTDT (QURGHONTEPPA , TJ) observed 0630 UTC 26 September 2021
Temperature: 31.0°C (88°F)
Dewpoint: 8.0°C (46°F) [RH = 24%]
Pressure (altimeter): 29.79 inches Hg (1009.0 mb)
Winds: variable direction winds at 2 MPH (2 knots; 1.0 m/s)
Visibility: 6 or more miles (10+ km)
Ceiling: at least 12,000 feet AGL
Clouds: sky clear below 12,000 feet AGL
Weather: no significant weather observed at this time

METAR text: UTDT 260600Z VRB01MPS 9999 FEW130 29/06 Q1009 R35/CLRD70 RMK QFE717/0957
Conditions at: UTDT (QURGHONTEPPA , TJ) observed 0600 UTC 26 September 2021
Temperature: 29.0°C (84°F)
Dewpoint: 6.0°C (43°F) [RH = 23%]
Pressure (altimeter): 29.79 inches Hg (1009.0 mb)
Winds: variable direction winds at 2 MPH (2 knots; 1.0 m/s)
Visibility: 6 or more miles (10+ km)
Ceiling: at least 12,000 feet AGL
Clouds: few clouds at 13000 feet AGL
Weather: no significant weather observed at this time

METAR text: UTDT 260530Z 26002MPS 220V290 9999 FEW130 28/08 Q1009 R35/CLRD70 RMK QFE718/0957
Conditions at: UTDT (QURGHONTEPPA , TJ) observed 0530 UTC 26 September 2021
Temperature: 28.0°C (82°F)
Dewpoint: 8.0°C (46°F) [RH = 28%]
Pressure (altimeter): 29.79 inches Hg (1009.0 mb)
Winds: from the W (260 degrees) at 5 MPH (4 knots; 2.1 m/s)
Visibility: 6 or more miles (10+ km)
Ceiling: at least 12,000 feet AGL
Clouds: few clouds at 13000 feet AGL
Weather: no significant weather observed at this time

METAR text: UTDT 260500Z VRB01MPS 9999 FEW130 27/07 Q1009 R35/CLRD70 RMK QFE718/0957
Conditions at: UTDT (QURGHONTEPPA , TJ) observed 0500 UTC 26 September 2021
Temperature: 27.0°C (81°F)
Dewpoint: 7.0°C (45°F) [RH = 28%]
Pressure (altimeter): 29.79 inches Hg (1009.0 mb)
Winds: variable direction winds at 2 MPH (2 knots; 1.0 m/s)
Visibility: 6 or more miles (10+ km)
Ceiling: at least 12,000 feet AGL
Clouds: few clouds at 13000 feet AGL
Weather: no significant weather observed at this time

METAR text: UTDT 260430Z VRB01MPS 9999 NSC 26/07 Q1009 R35/CLRD70 RMK QFE718/0957
Conditions at: UTDT (QURGHONTEPPA , TJ) observed 0430 UTC 26 September 2021
Temperature: 26.0°C (79°F)
Dewpoint: 7.0°C (45°F) [RH = 30%]
Pressure (altimeter): 29.79 inches Hg (1009.0 mb)
Winds: variable direction winds at 2 MPH (2 knots; 1.0 m/s)
Visibility: 6 or more miles (10+ km)
Ceiling: at least 12,000 feet AGL
Clouds: sky clear below 12,000 feet AGL
Weather: no significant weather observed at this time

METAR text: UTDT 260400Z VRB01MPS 9999 NSC 25/07 Q1009 R35/CLRD70 RMK QFE718/0957
Conditions at: UTDT (QURGHONTEPPA , TJ) observed 0400 UTC 26 September 2021
Temperature: 25.0°C (77°F)
Dewpoint: 7.0°C (45°F) [RH = 32%]
Pressure (altimeter): 29.79 inches Hg (1009.0 mb)
Winds: variable direction winds at 2 MPH (2 knots; 1.0 m/s)
Visibility: 6 or more miles (10+ km)
Ceiling: at least 12,000 feet AGL
Clouds: sky clear below 12,000 feet AGL
Weather: no significant weather observed at this time

METAR text: UTDT 260330Z 00000MPS 9999 NSC 23/05 Q1009 R35/CLRD70 RMK QFE718/0957
Conditions at: UTDT (QURGHONTEPPA , TJ) observed 0330 UTC 26 September 2021
Temperature: 23.0°C (73°F)
Dewpoint: 5.0°C (41°F) [RH = 31%]
Pressure (altimeter): 29.79 inches Hg (1009.0 mb)
Winds: calm
Visibility: 6 or more miles (10+ km)
Ceiling: at least 12,000 feet AGL
Clouds: sky clear below 12,000 feet AGL
Weather: no significant weather observed at this time

METAR text: UTDT 260300Z 00000MPS 9999 NSC 20/07 Q1009 R35/CLRD70 RMK QFE718/0957
Conditions at: UTDT (QURGHONTEPPA , TJ) observed 0300 UTC 26 September 2021
Temperature: 20.0°C (68°F)
Dewpoint: 7.0°C (45°F) [RH = 43%]
Pressure (altimeter): 29.79 inches Hg (1009.0 mb)
Winds: calm
Visibility: 6 or more miles (10+ km)
Ceiling: at least 12,000 feet AGL
Clouds: sky clear below 12,000 feet AGL
Weather: no significant weather observed at this time

METAR text: UTDT 260230Z 00000MPS 9999 NSC 18/08 Q1009 R35/////// RMK QFE717/0957
Conditions at: UTDT (QURGHONTEPPA , TJ) observed 0230 UTC 26 September 2021
Temperature: 18.0°C (64°F)
Dewpoint: 8.0°C (46°F) [RH = 52%]
Pressure (altimeter): 29.79 inches Hg (1009.0 mb)
Winds: calm
Visibility: 6 or more miles (10+ km)
Ceiling: at least 12,000 feet AGL
Clouds: sky clear below 12,000 feet AGL
Weather: no significant weather observed at this time

METAR text: UTDT 260200Z 19001MPS 9999 NSC 15/08 Q1009 R35/////// RMK QFE717/0957
Conditions at: UTDT (QURGHONTEPPA , TJ) observed 0200 UTC 26 September 2021
Temperature: 15.0°C (59°F)
Dewpoint: 8.0°C (46°F) [RH = 63%]
Pressure (altimeter): 29.79 inches Hg (1009.0 mb)
Winds: from the S (190 degrees) at 2 MPH (2 knots; 1.0 m/s)
Visibility: 6 or more miles (10+ km)
Ceiling: at least 12,000 feet AGL
Clouds: sky clear below 12,000 feet AGL
Weather: no significant weather observed at this time

METAR text: UTDT 260130Z 18001MPS 9999 NSC 13/07 Q1008 R35/////// RMK QFE717/0956
Conditions at: UTDT (QURGHONTEPPA , TJ) observed 0130 UTC 26 September 2021
Temperature: 13.0°C (55°F)
Dewpoint: 7.0°C (45°F) [RH = 67%]
Pressure (altimeter): 29.76 inches Hg (1008.0 mb)
Winds: from the S (180 degrees) at 2 MPH (2 knots; 1.0 m/s)
Visibility: 6 or more miles (10+ km)
Ceiling: at least 12,000 feet AGL
Clouds: sky clear below 12,000 feet AGL
Weather: no significant weather observed at this time

METAR text: UTDT 260100Z 15001MPS 9999 NSC 13/09 Q1008 R35/////// RMK QFE717/0956
Conditions at: UTDT (QURGHONTEPPA , TJ) observed 0100 UTC 26 September 2021
Temperature: 13.0°C (55°F)
Dewpoint: 9.0°C (48°F) [RH = 77%]
Pressure (altimeter): 29.76 inches Hg (1008.0 mb)
Winds: from the SSE (150 degrees) at 2 MPH (2 knots; 1.0 m/s)
Visibility: 6 or more miles (10+ km)
Ceiling: at least 12,000 feet AGL
Clouds: sky clear below 12,000 feet AGL
Weather: no significant weather observed at this time

METAR text: UTDT 260030Z 00000MPS 9999 NSC 14/11 Q1008 R35/////// RMK QFE717/0956
Conditions at: UTDT (QURGHONTEPPA , TJ) observed 0030 UTC 26 September 2021
Temperature: 14.0°C (57°F)
Dewpoint: 11.0°C (52°F) [RH = 82%]
Pressure (altimeter): 29.76 inches Hg (1008.0 mb)
Winds: calm
Visibility: 6 or more miles (10+ km)
Ceiling: at least 12,000 feet AGL
Clouds: sky clear below 12,000 feet AGL
Weather: no significant weather observed at this time

METAR text: UTDT 260000Z 00000MPS 9999 NSC 14/09 Q1008 R35/////// RMK QFE717/0956
Conditions at: UTDT (QURGHONTEPPA , TJ) observed 0000 UTC 26 September 2021
Temperature: 14.0°C (57°F)
Dewpoint: 9.0°C (48°F) [RH = 72%]
Pressure (altimeter): 29.76 inches Hg (1008.0 mb)
Winds: calm
Visibility: 6 or more miles (10+ km)
Ceiling: at least 12,000 feet AGL
Clouds: sky clear below 12,000 feet AGL
Weather: no significant weather observed at this time

METAR text: UTDT 252330Z 02001MPS 9999 FEW130 16/09 Q1008 R35/////// RMK QFE717/0956
Conditions at: UTDT (QURGHONTEPPA , TJ) observed 2330 UTC 25 September 2021
Temperature: 16.0°C (61°F)
Dewpoint: 9.0°C (48°F) [RH = 63%]
Pressure (altimeter): 29.76 inches Hg (1008.0 mb)
Winds: from the NNE (20 degrees) at 2 MPH (2 knots; 1.0 m/s)
Visibility: 6 or more miles (10+ km)
Ceiling: at least 12,000 feet AGL
Clouds: few clouds at 13000 feet AGL
Weather: no significant weather observed at this time

METAR text: UTDT 252300Z 08001MPS 9999 FEW130 15/08 Q1008 R35/////// RMK QFE717/0956
Conditions at: UTDT (QURGHONTEPPA , TJ) observed 2300 UTC 25 September 2021
Temperature: 15.0°C (59°F)
Dewpoint: 8.0°C (46°F) [RH = 63%]
Pressure (altimeter): 29.76 inches Hg (1008.0 mb)
Winds: from the E (80 degrees) at 2 MPH (2 knots; 1.0 m/s)
Visibility: 6 or more miles (10+ km)
Ceiling: at least 12,000 feet AGL
Clouds: few clouds at 13000 feet AGL
Weather: no significant weather observed at this time

METAR text: UTDT 252230Z 36002MPS 9999 FEW130 15/09 Q1008 R35/////// RMK QFE717/0956
Conditions at: UTDT (QURGHONTEPPA , TJ) observed 2230 UTC 25 September 2021
Temperature: 15.0°C (59°F)
Dewpoint: 9.0°C (48°F) [RH = 67%]
Pressure (altimeter): 29.76 inches Hg (1008.0 mb)
Winds: from the N (360 degrees) at 5 MPH (4 knots; 2.1 m/s)
Visibility: 6 or more miles (10+ km)
Ceiling: at least 12,000 feet AGL
Clouds: few clouds at 13000 feet AGL
Weather: no significant weather observed at this time

METAR text: UTDT 252200Z 03002MPS 9999 FEW130 16/10 Q1008 R35/////// RMK QFE717/0956
Conditions at: UTDT (QURGHONTEPPA , TJ) observed 2200 UTC 25 September 2021
Temperature: 16.0°C (61°F)
Dewpoint: 10.0°C (50°F) [RH = 68%]
Pressure (altimeter): 29.76 inches Hg (1008.0 mb)
Winds: from the NNE (30 degrees) at 5 MPH (4 knots; 2.1 m/s)
Visibility: 6 or more miles (10+ km)
Ceiling: at least 12,000 feet AGL
Clouds: few clouds at 13000 feet AGL
Weather: no significant weather observed at this time

METAR text: UTDT 252130Z 36002MPS 9999 FEW130 16/10 Q1008 R35/////// RMK QFE717/0956
Conditions at: UTDT (QURGHONTEPPA , TJ) observed 2130 UTC 25 September 2021
Temperature: 16.0°C (61°F)
Dewpoint: 10.0°C (50°F) [RH = 68%]
Pressure (altimeter): 29.76 inches Hg (1008.0 mb)
Winds: from the N (360 degrees) at 5 MPH (4 knots; 2.1 m/s)
Visibility: 6 or more miles (10+ km)
Ceiling: at least 12,000 feet AGL
Clouds: few clouds at 13000 feet AGL
Weather: no significant weather observed at this time

METAR text: UTDT 252100Z 01002MPS 9999 FEW130 16/08 Q1008 R35/////// RMK QFE717/0956
Conditions at: UTDT (QURGHONTEPPA , TJ) observed 2100 UTC 25 September 2021
Temperature: 16.0°C (61°F)
Dewpoint: 8.0°C (46°F) [RH = 59%]
Pressure (altimeter): 29.76 inches Hg (1008.0 mb)
Winds: from the N (10 degrees) at 5 MPH (4 knots; 2.1 m/s)
Visibility: 6 or more miles (10+ km)
Ceiling: at least 12,000 feet AGL
Clouds: few clouds at 13000 feet AGL
Weather: no significant weather observed at this time

METAR text: UTDT 252030Z VRB01MPS 9999 FEW130 15/11 Q1009 R35/////// RMK QFE717/0956
Conditions at: UTDT (QURGHONTEPPA , TJ) observed 2030 UTC 25 September 2021
Temperature: 15.0°C (59°F)
Dewpoint: 11.0°C (52°F) [RH = 77%]
Pressure (altimeter): 29.79 inches Hg (1009.0 mb)
Winds: variable direction winds at 2 MPH (2 knots; 1.0 m/s)
Visibility: 6 or more miles (10+ km)
Ceiling: at least 12,000 feet AGL
Clouds: few clouds at 13000 feet AGL
Weather: no significant weather observed at this time

METAR text: UTDT 252000Z 01001MPS 9999 FEW120 17/07 Q1009 R35/////// RMK QFE717/0957
Conditions at: UTDT (QURGHONTEPPA , TJ) observed 2000 UTC 25 September 2021
Temperature: 17.0°C (63°F)
Dewpoint: 7.0°C (45°F) [RH = 52%]
Pressure (altimeter): 29.79 inches Hg (1009.0 mb)
Winds: from the N (10 degrees) at 2 MPH (2 knots; 1.0 m/s)
Visibility: 6 or more miles (10+ km)
Ceiling: at least 12,000 feet AGL
Clouds: few clouds at 12000 feet AGL
Weather: no significant weather observed at this time

METAR text: UTDT 251930Z 00000MPS 9999 FEW120 17/06 Q1009 R35/////// RMK QFE717/0957
Conditions at: UTDT (QURGHONTEPPA , TJ) observed 1930 UTC 25 September 2021
Temperature: 17.0°C (63°F)
Dewpoint: 6.0°C (43°F) [RH = 48%]
Pressure (altimeter): 29.79 inches Hg (1009.0 mb)
Winds: calm
Visibility: 6 or more miles (10+ km)
Ceiling: at least 12,000 feet AGL
Clouds: few clouds at 12000 feet AGL
Weather: no significant weather observed at this time

METAR text: UTDT 251900Z 36002MPS 9999 FEW120 19/05 Q1009 R35/////// RMK QFE717/0957
Conditions at: UTDT (QURGHONTEPPA , TJ) observed 1900 UTC 25 September 2021
Temperature: 19.0°C (66°F)
Dewpoint: 5.0°C (41°F) [RH = 40%]
Pressure (altimeter): 29.79 inches Hg (1009.0 mb)
Winds: from the N (360 degrees) at 5 MPH (4 knots; 2.1 m/s)
Visibility: 6 or more miles (10+ km)
Ceiling: at least 12,000 feet AGL
Clouds: few clouds at 12000 feet AGL
Weather: no significant weather observed at this time

METAR text: UTDT 251830Z 08001MPS 9999 FEW130 19/03 Q1009 R35/////// RMK QFE717/0957
Conditions at: UTDT (QURGHONTEPPA , TJ) observed 1830 UTC 25 September 2021
Temperature: 19.0°C (66°F)
Dewpoint: 3.0°C (37°F) [RH = 34%]
Pressure (altimeter): 29.79 inches Hg (1009.0 mb)
Winds: from the E (80 degrees) at 2 MPH (2 knots; 1.0 m/s)
Visibility: 6 or more miles (10+ km)
Ceiling: at least 12,000 feet AGL
Clouds: few clouds at 13000 feet AGL
Weather: no significant weather observed at this time

METAR text: UTDT 251800Z 05002MPS 9999 FEW130 20/03 Q1009 R35/////// RMK QFE717/0957
Conditions at: UTDT (QURGHONTEPPA , TJ) observed 1800 UTC 25 September 2021
Temperature: 20.0°C (68°F)
Dewpoint: 3.0°C (37°F) [RH = 32%]
Pressure (altimeter): 29.79 inches Hg (1009.0 mb)
Winds: from the NE (50 degrees) at 5 MPH (4 knots; 2.1 m/s)
Visibility: 6 or more miles (10+ km)
Ceiling: at least 12,000 feet AGL
Clouds: few clouds at 13000 feet AGL
Weather: no significant weather observed at this time

METAR text: UTDT 251730Z VRB01MPS 9999 FEW130 20/03 Q1009 R35/////// RMK QFE717/0957
Conditions at: UTDT (QURGHONTEPPA , TJ) observed 1730 UTC 25 September 2021
Temperature: 20.0°C (68°F)
Dewpoint: 3.0°C (37°F) [RH = 32%]
Pressure (altimeter): 29.79 inches Hg (1009.0 mb)
Winds: variable direction winds at 2 MPH (2 knots; 1.0 m/s)
Visibility: 6 or more miles (10+ km)
Ceiling: at least 12,000 feet AGL
Clouds: few clouds at 13000 feet AGL
Weather: no significant weather observed at this time

METAR text: UTDT 251700Z 09002MPS 9999 FEW130 21/03 Q1009 R35/////// RMK QFE717/0957
Conditions at: UTDT (QURGHONTEPPA , TJ) observed 1700 UTC 25 September 2021
Temperature: 21.0°C (70°F)
Dewpoint: 3.0°C (37°F) [RH = 30%]
Pressure (altimeter): 29.79 inches Hg (1009.0 mb)
Winds: from the E (90 degrees) at 5 MPH (4 knots; 2.1 m/s)
Visibility: 6 or more miles (10+ km)
Ceiling: at least 12,000 feet AGL
Clouds: few clouds at 13000 feet AGL
Weather: no significant weather observed at this time

METAR text: UTDT 251630Z 09002MPS 9999 FEW130 22/03 Q1009 R35/////// RMK QFE718/0957
Conditions at: UTDT (QURGHONTEPPA , TJ) observed 1630 UTC 25 September 2021
Temperature: 22.0°C (72°F)
Dewpoint: 3.0°C (37°F) [RH = 29%]
Pressure (altimeter): 29.79 inches Hg (1009.0 mb)
Winds: from the E (90 degrees) at 5 MPH (4 knots; 2.1 m/s)
Visibility: 6 or more miles (10+ km)
Ceiling: at least 12,000 feet AGL
Clouds: few clouds at 13000 feet AGL
Weather: no significant weather observed at this time

METAR text: UTDT 251600Z 07002MPS 9999 NSC 22/04 Q1009 R35/////// RMK QFE718/0957
Conditions at: UTDT (QURGHONTEPPA , TJ) observed 1600 UTC 25 September 2021
Temperature: 22.0°C (72°F)
Dewpoint: 4.0°C (39°F) [RH = 31%]
Pressure (altimeter): 29.79 inches Hg (1009.0 mb)
Winds: from the ENE (70 degrees) at 5 MPH (4 knots; 2.1 m/s)
Visibility: 6 or more miles (10+ km)
Ceiling: at least 12,000 feet AGL
Clouds: sky clear below 12,000 feet AGL
Weather: no significant weather observed at this time

METAR text: UTDT 251530Z 09001MPS 9000 NSC 21/10 Q1009 R35/////// RMK QFE717/0957
Conditions at: UTDT (QURGHONTEPPA , TJ) observed 1530 UTC 25 September 2021
Temperature: 21.0°C (70°F)
Dewpoint: 10.0°C (50°F) [RH = 49%]
Pressure (altimeter): 29.79 inches Hg (1009.0 mb)
Winds: from the E (90 degrees) at 2 MPH (2 knots; 1.0 m/s)
Visibility: 6 miles ( 9 km)
Ceiling: at least 12,000 feet AGL
Clouds: sky clear below 12,000 feet AGL
Weather: no significant weather observed at this time

METAR text: UTDT 251500Z 10001MPS 8000 FEW130 21/10 Q1009 R35/////// RMK QFE717/0957
Conditions at: UTDT (QURGHONTEPPA , TJ) observed 1500 UTC 25 September 2021
Temperature: 21.0°C (70°F)
Dewpoint: 10.0°C (50°F) [RH = 49%]
Pressure (altimeter): 29.79 inches Hg (1009.0 mb)
Winds: from the E (100 degrees) at 2 MPH (2 knots; 1.0 m/s)
Visibility: 5 miles ( 8 km)
Ceiling: at least 12,000 feet AGL
Clouds: few clouds at 13000 feet AGL
Weather: no significant weather observed at this time

METAR text: UTDT 251430Z 00000MPS 7000 FEW130 21/13 Q1009 R35/////// RMK QFE717/0957
Conditions at: UTDT (QURGHONTEPPA , TJ) observed 1430 UTC 25 September 2021
Temperature: 21.0°C (70°F)
Dewpoint: 13.0°C (55°F) [RH = 60%]
Pressure (altimeter): 29.79 inches Hg (1009.0 mb)
Winds: calm
Visibility: 4 miles ( 7 km)
Ceiling: at least 12,000 feet AGL
Clouds: few clouds at 13000 feet AGL
Weather: no significant weather observed at this time

METAR text: UTDT 251400Z 17001MPS 6000 FEW130 23/12 Q1008 R35/////// RMK QFE717/0956
Conditions at: UTDT (QURGHONTEPPA , TJ) observed 1400 UTC 25 September 2021
Temperature: 23.0°C (73°F)
Dewpoint: 12.0°C (54°F) [RH = 50%]
Pressure (altimeter): 29.76 inches Hg (1008.0 mb)
Winds: from the S (170 degrees) at 2 MPH (2 knots; 1.0 m/s)
Visibility: 4 miles ( 6 km)
Ceiling: at least 12,000 feet AGL
Clouds: few clouds at 13000 feet AGL
Weather: no significant weather observed at this time

METAR text: UTDT 251330Z 21002MPS 7000 FEW130 25/12 Q1008 R35/////// RMK QFE717/0956
Conditions at: UTDT (QURGHONTEPPA , TJ) observed 1330 UTC 25 September 2021
Temperature: 25.0°C (77°F)
Dewpoint: 12.0°C (54°F) [RH = 44%]
Pressure (altimeter): 29.76 inches Hg (1008.0 mb)
Winds: from the SSW (210 degrees) at 5 MPH (4 knots; 2.1 m/s)
Visibility: 4 miles ( 7 km)
Ceiling: at least 12,000 feet AGL
Clouds: few clouds at 13000 feet AGL
Weather: no significant weather observed at this time

METAR text: UTDT 251300Z 00000MPS 9999 FEW130 29/07 Q1008 R35/////// RMK QFE717/0956
Conditions at: UTDT (QURGHONTEPPA , TJ) observed 1300 UTC 25 September 2021
Temperature: 29.0°C (84°F)
Dewpoint: 7.0°C (45°F) [RH = 25%]
Pressure (altimeter): 29.76 inches Hg (1008.0 mb)
Winds: calm
Visibility: 6 or more miles (10+ km)
Ceiling: at least 12,000 feet AGL
Clouds: few clouds at 13000 feet AGL
Weather: no significant weather observed at this time

METAR text: UTDT 251230Z 00000MPS 9999 NSC 32/08 Q1009 R35/////// RMK QFE717/0956
Conditions at: UTDT (QURGHONTEPPA , TJ) observed 1230 UTC 25 September 2021
Temperature: 32.0°C (90°F)
Dewpoint: 8.0°C (46°F) [RH = 23%]
Pressure (altimeter): 29.79 inches Hg (1009.0 mb)
Winds: calm
Visibility: 6 or more miles (10+ km)
Ceiling: at least 12,000 feet AGL
Clouds: sky clear below 12,000 feet AGL
Weather: no significant weather observed at this time

METAR text: UTDT 251200Z 28001MPS 9999 FEW130 33/04 Q1009 R35/CLRD70 RMK QFE717/0956
Conditions at: UTDT (QURGHONTEPPA , TJ) observed 1200 UTC 25 September 2021
Temperature: 33.0°C (91°F)
Dewpoint: 4.0°C (39°F) [RH = 16%]
Pressure (altimeter): 29.79 inches Hg (1009.0 mb)
Winds: from the W (280 degrees) at 2 MPH (2 knots; 1.0 m/s)
Visibility: 6 or more miles (10+ km)
Ceiling: at least 12,000 feet AGL
Clouds: few clouds at 13000 feet AGL
Weather: no significant weather observed at this time

METAR text: UTDT 251130Z 28002MPS 240V300 9999 NSC 34/03 Q1009 R35/CLRD70 RMK QFE717/0956
Conditions at: UTDT (QURGHONTEPPA , TJ) observed 1130 UTC 25 September 2021
Temperature: 34.0°C (93°F)
Dewpoint: 3.0°C (37°F) [RH = 14%]
Pressure (altimeter): 29.79 inches Hg (1009.0 mb)
Winds: from the W (280 degrees) at 5 MPH (4 knots; 2.1 m/s)
Visibility: 6 or more miles (10+ km)
Ceiling: at least 12,000 feet AGL
Clouds: sky clear below 12,000 feet AGL
Weather: no significant weather observed at this time

METAR text: UTDT 251100Z 27002MPS 240V300 9999 NSC 35/02 Q1009 R35/CLRD70 RMK QFE717/0957
Conditions at: UTDT (QURGHONTEPPA , TJ) observed 1100 UTC 25 September 2021
Temperature: 35.0°C (95°F)
Dewpoint: 2.0°C (36°F) [RH = 13%]
Pressure (altimeter): 29.79 inches Hg (1009.0 mb)
Winds: from the W (270 degrees) at 5 MPH (4 knots; 2.1 m/s)
Visibility: 6 or more miles (10+ km)
Ceiling: at least 12,000 feet AGL
Clouds: sky clear below 12,000 feet AGL
Weather: no significant weather observed at this time

METAR text: UTDT 251030Z 26002MPS 220V310 9999 NSC 35/02 Q1009 R35/CLRD70 RMK QFE717/0957
Conditions at: UTDT (QURGHONTEPPA , TJ) observed 1030 UTC 25 September 2021
Temperature: 35.0°C (95°F)
Dewpoint: 2.0°C (36°F) [RH = 13%]
Pressure (altimeter): 29.79 inches Hg (1009.0 mb)
Winds: from the W (260 degrees) at 5 MPH (4 knots; 2.1 m/s)
Visibility: 6 or more miles (10+ km)
Ceiling: at least 12,000 feet AGL
Clouds: sky clear below 12,000 feet AGL
Weather: no significant weather observed at this time

METAR text: UTDT 251000Z 25002MPS 140V300 9999 NSC 35/01 Q1009 R35/CLRD70 RMK QFE718/0957
Conditions at: UTDT (QURGHONTEPPA , TJ) observed 1000 UTC 25 September 2021
Temperature: 35.0°C (95°F)
Dewpoint: 1.0°C (34°F) [RH = 12%]
Pressure (altimeter): 29.79 inches Hg (1009.0 mb)
Winds: from the WSW (250 degrees) at 5 MPH (4 knots; 2.1 m/s)
Visibility: 6 or more miles (10+ km)
Ceiling: at least 12,000 feet AGL
Clouds: sky clear below 12,000 feet AGL
Weather: no significant weather observed at this time

METAR text: UTDT 250930Z 27002MPS 160V310 9999 NSC 35/M01 Q1010 R35/CLRD70 RMK QFE718/0958
Conditions at: UTDT (QURGHONTEPPA , TJ) observed 0930 UTC 25 September 2021
Temperature: 35.0°C (95°F)
Dewpoint: -1.0°C (30°F) [RH = 10%]
Pressure (altimeter): 29.82 inches Hg (1010.0 mb)
Winds: from the W (270 degrees) at 5 MPH (4 knots; 2.1 m/s)
Visibility: 6 or more miles (10+ km)
Ceiling: at least 12,000 feet AGL
Clouds: sky clear below 12,000 feet AGL
Weather: no significant weather observed at this time

METAR text: UTDT 250900Z VRB01MPS 9999 NSC 35/04 Q1010 R35/CLRD70 RMK QFE718/0958
Conditions at: UTDT (QURGHONTEPPA , TJ) observed 0900 UTC 25 September 2021
Temperature: 35.0°C (95°F)
Dewpoint: 4.0°C (39°F) [RH = 14%]
Pressure (altimeter): 29.82 inches Hg (1010.0 mb)
Winds: variable direction winds at 2 MPH (2 knots; 1.0 m/s)
Visibility: 6 or more miles (10+ km)
Ceiling: at least 12,000 feet AGL
Clouds: sky clear below 12,000 feet AGL
Weather: no significant weather observed at this time

METAR text: UTDT 250830Z 26002MPS 210V320 9999 FEW130 33/04 Q1011 R35/CLRD70 RMK QFE719/0959
Conditions at: UTDT (QURGHONTEPPA , TJ) observed 0830 UTC 25 September 2021
Temperature: 33.0°C (91°F)
Dewpoint: 4.0°C (39°F) [RH = 16%]
Pressure (altimeter): 29.85 inches Hg (1011.0 mb)
Winds: from the W (260 degrees) at 5 MPH (4 knots; 2.1 m/s)
Visibility: 6 or more miles (10+ km)
Ceiling: at least 12,000 feet AGL
Clouds: few clouds at 13000 feet AGL
Weather: no significant weather observed at this time

METAR text: UTDT 250800Z VRB01MPS 9999 FEW130 33/05 Q1011 R35/CLRD70 RMK QFE719/0959
Conditions at: UTDT (QURGHONTEPPA , TJ) observed 0800 UTC 25 September 2021
Temperature: 33.0°C (91°F)
Dewpoint: 5.0°C (41°F) [RH = 17%]
Pressure (altimeter): 29.85 inches Hg (1011.0 mb)
Winds: variable direction winds at 2 MPH (2 knots; 1.0 m/s)
Visibility: 6 or more miles (10+ km)
Ceiling: at least 12,000 feet AGL
Clouds: few clouds at 13000 feet AGL
Weather: no significant weather observed at this time

METAR text: UTDT 250730Z 28002MPS 220V360 9999 FEW130 32/07 Q1012 R35/CLRD70 RMK QFE720/0960
Conditions at: UTDT (QURGHONTEPPA , TJ) observed 0730 UTC 25 September 2021
Temperature: 32.0°C (90°F)
Dewpoint: 7.0°C (45°F) [RH = 21%]
Pressure (altimeter): 29.88 inches Hg (1012.0 mb)
Winds: from the W (280 degrees) at 5 MPH (4 knots; 2.1 m/s)
Visibility: 6 or more miles (10+ km)
Ceiling: at least 12,000 feet AGL
Clouds: few clouds at 13000 feet AGL
Weather: no significant weather observed at this time

Forecast for: UTDT (QURGHONTEPPA , TJ)
Text: TAF UTDT 261800Z 2619/2704 VRB02MPS 6000 FEW030 SCT050
Forecast period: 1900 to 2100 UTC 26 September 2021
Forecast type: FROM: standard forecast or significant change
Winds: variable direction winds at 5 MPH (4 knots; 2.1 m/s)
Visibility: 4 miles (6 km)
Ceiling: at least 12,000 feet AGL
Clouds: few clouds at 3000 feet AGL
scattered clouds at 5000 feet AGL
Weather: no significant weather forecast for this period
Text: BECMG 2621/2623 18005MPS 3100 HZ
Forecast period: 2100 UTC 26 September 2021 to 0400 UTC 27 September 2021
Forecast type: BECOMING: Conditions expected to become as follows by 2300 UTC 26 September 2021
Winds: from the S (180 degrees) at 12 MPH (10 knots; 5.1 m/s)
Visibility: 1.93 miles (3.11 km)
Ceiling: at least 12,000 feet AGL
Clouds: few clouds at 3000 feet AGL
scattered clouds at 5000 feet AGL
Weather: HZ  (haze)
Text: TEMPO 2623/2704 19009G14MPS 1200 HZ
Forecast period: 2300 UTC 26 September 2021 to 0400 UTC 27 September 2021
Forecast type: TEMPORARY: The following changes expected for less than half the time period
Winds: from the S (190 degrees) at 20 MPH (17 knots; 8.7 m/s)
gusting to 31 MPH (27 knots; 13.9 m/s)
Visibility: 0.75 miles (1.21 km)
Ceiling: unknown
Clouds: missing
Weather: HZ  (haze)